Time;durP1;ratioP1;P1;durP2;ratioP2;P2;SDS_P1;SDS_P2;PMS_P1;PMS_P2;Temp;Humidity;BMP_temperature;BMP_pressure;BME280_temperature;BME280_humidity;BME280_pressure;Samples;Min_cycle;Max_cycle;Signal;HPM_P1;HPM_P2
2023/06/15 00:01:32;;;;;;;0.17;0.17;;;;;;;;;;5047278;28;20460;-74
2023/06/15 00:03:59;;;;;;;0.10;0.10;;;;;;;;;;5051822;28;20230;-74
2023/06/15 00:06:27;;;;;;;0.00;0.00;;;;;;;;;;5046846;28;20272;-74
2023/06/15 00:08:54;;;;;;;0.08;0.08;;;;;;;;;;5051616;28;20251;-74
2023/06/15 00:11:21;;;;;;;0.00;0.00;;;;;;;;;;5045877;28;20306;-74
2023/06/15 00:13:48;;;;;;;0.10;0.10;;;;;;;;;;5052673;28;20272;-74
2023/06/15 00:16:18;;;;;;;0.00;0.00;;;;;;;;;;5045241;28;20487;-74
2023/06/15 00:18:47;;;;;;;0.00;0.00;;;;;;;;;;5052931;28;20213;-74
2023/06/15 00:21:15;;;;;;;0.10;0.10;;;;;;;;;;5044893;28;20239;-74
2023/06/15 00:23:41;;;;;;;0.05;0.05;;;;;;;;;;5053270;28;20283;-74
2023/06/15 00:26:08;;;;;;;0.03;0.03;;;;;;;;;;5044168;28;20373;-74
2023/06/15 00:28:35;;;;;;;0.10;0.10;;;;;;;;;;5054058;28;20208;-74
2023/06/15 00:31:02;;;;;;;0.15;0.15;;;;;;;;;;5042996;28;20318;-74
2023/06/15 00:33:28;;;;;;;0.00;0.00;;;;;;;;;;5054858;28;20241;-74
2023/06/15 00:35:55;;;;;;;0.08;0.08;;;;;;;;;;5042393;28;20317;-74
2023/06/15 00:38:21;;;;;;;0.03;0.03;;;;;;;;;;5055593;28;20504;-74
2023/06/15 00:40:49;;;;;;;0.10;0.10;;;;;;;;;;5041393;28;20280;-73
2023/06/15 00:43:15;;;;;;;0.08;0.08;;;;;;;;;;5056128;28;20391;-73
2023/06/15 00:45:43;;;;;;;0.00;0.00;;;;;;;;;;5039523;28;20531;-73
2023/06/15 00:48:09;;;;;;;0.10;0.10;;;;;;;;;;5057181;28;20497;-73
2023/06/15 00:50:38;;;;;;;0.00;0.00;;;;;;;;;;5039748;28;20266;-74
2023/06/15 00:53:05;;;;;;;0.00;0.00;;;;;;;;;;5057560;28;20415;-74
2023/06/15 00:55:33;;;;;;;0.05;0.05;;;;;;;;;;5039108;28;20249;-73
2023/06/15 00:57:59;;;;;;;0.10;0.10;;;;;;;;;;5058187;28;20425;-74
2023/06/15 01:00:26;;;;;;;0.00;0.00;;;;;;;;;;5038202;28;20415;-73
2023/06/15 01:02:56;;;;;;;0.10;0.10;;;;;;;;;;5058735;28;20203;-74
2023/06/15 01:05:23;;;;;;;0.03;0.03;;;;;;;;;;5037334;28;20283;-74
2023/06/15 01:07:52;;;;;;;0.10;0.10;;;;;;;;;;5059073;28;20211;-74
2023/06/15 01:10:20;;;;;;;0.10;0.10;;;;;;;;;;5036828;28;20293;-74
2023/06/15 01:12:50;;;;;;;0.10;0.10;;;;;;;;;;5059279;28;20293;-74
2023/06/15 01:15:17;;;;;;;0.03;0.03;;;;;;;;;;5036734;28;20202;-73
2023/06/15 01:17:45;;;;;;;0.00;0.00;;;;;;;;;;5059629;28;20209;-74
2023/06/15 01:20:17;;;;;;;0.25;0.25;;;;;;;;;;5036085;28;20432;-73
2023/06/15 01:22:49;;;;;;;0.10;0.10;;;;;;;;;;5059546;28;20205;-74
2023/06/15 01:25:17;;;;;;;0.00;0.00;;;;;;;;;;5036389;28;20201;-73
2023/06/15 01:27:45;;;;;;;0.10;0.10;;;;;;;;;;5059601;28;20208;-74
2023/06/15 01:30:15;;;;;;;0.10;0.10;;;;;;;;;;5035473;28;20279;-73
2023/06/15 01:32:41;;;;;;;0.05;0.05;;;;;;;;;;5059572;28;20265;-74
2023/06/15 01:35:08;;;;;;;0.00;0.00;;;;;;;;;;5042844;28;20208;-73
2023/06/15 01:37:35;;;;;;;0.05;0.05;;;;;;;;;;5060141;28;20242;-74
2023/06/15 01:40:01;;;;;;;0.10;0.10;;;;;;;;;;5044895;28;20240;-74
2023/06/15 01:42:28;;;;;;;0.03;0.03;;;;;;;;;;5050399;28;20261;-74
2023/06/15 01:44:58;;;;;;;0.03;0.03;;;;;;;;;;5044697;28;20244;-74
2023/06/15 01:47:24;;;;;;;0.10;0.10;;;;;;;;;;5050348;28;20240;-74
2023/06/15 01:49:51;;;;;;;0.10;0.10;;;;;;;;;;5044658;28;20206;-74
2023/06/15 01:52:18;;;;;;;0.10;0.10;;;;;;;;;;5050155;28;20311;-74
2023/06/15 01:54:44;;;;;;;0.10;0.10;;;;;;;;;;5044901;28;20273;-74
2023/06/15 01:57:10;;;;;;;0.10;0.10;;;;;;;;;;5050098;28;20303;-73
2023/06/15 01:59:37;;;;;;;0.10;0.10;;;;;;;;;;5044733;28;20355;-73
2023/06/15 02:02:05;;;;;;;0.10;0.10;;;;;;;;;;5049444;28;20313;-73
2023/06/15 02:04:31;;;;;;;0.10;0.10;;;;;;;;;;5044870;28;20244;-73
2023/06/15 02:06:57;;;;;;;0.52;0.52;;;;;;;;;;5048603;28;20276;-73
2023/06/15 02:09:24;;;;;;;0.10;0.10;;;;;;;;;;5045534;28;20209;-74
2023/06/15 02:11:50;;;;;;;0.03;0.03;;;;;;;;;;5047526;28;20235;-73
2023/06/15 02:14:17;;;;;;;0.10;0.10;;;;;;;;;;5046398;28;20277;-73
2023/06/15 02:16:44;;;;;;;0.10;0.10;;;;;;;;;;5046455;28;20247;-73
2023/06/15 02:19:12;;;;;;;0.08;0.08;;;;;;;;;;5047379;28;20229;-73
2023/06/15 02:21:38;;;;;;;0.10;0.10;;;;;;;;;;5045831;28;20574;-73
2023/06/15 02:24:05;;;;;;;0.03;0.03;;;;;;;;;;5048048;28;20528;-74
2023/06/15 02:26:31;;;;;;;0.10;0.10;;;;;;;;;;5044909;28;20236;-73
2023/06/15 02:28:58;;;;;;;0.10;0.10;;;;;;;;;;5048721;28;20284;-74
2023/06/15 02:31:25;;;;;;;0.10;0.10;;;;;;;;;;5043778;28;20308;-74
2023/06/15 02:33:51;;;;;;;0.10;0.10;;;;;;;;;;5049534;28;20224;-74
2023/06/15 02:36:20;;;;;;;0.20;0.20;;;;;;;;;;5042852;28;20258;-74
2023/06/15 02:38:48;;;;;;;0.10;0.10;;;;;;;;;;5050216;28;20210;-74
2023/06/15 02:41:14;;;;;;;0.00;0.00;;;;;;;;;;5042431;28;20241;-74
2023/06/15 02:43:41;;;;;;;0.10;0.10;;;;;;;;;;5050395;28;20220;-73
2023/06/15 02:46:07;;;;;;;0.10;0.10;;;;;;;;;;5041654;28;20438;-74
2023/06/15 02:48:34;;;;;;;0.10;0.10;;;;;;;;;;5051590;28;20435;-74
2023/06/15 02:51:00;;;;;;;0.30;0.30;;;;;;;;;;5040863;28;20442;-74
2023/06/15 02:53:28;;;;;;;0.10;0.10;;;;;;;;;;5051976;28;20297;-74
2023/06/15 02:55:54;;;;;;;0.00;0.00;;;;;;;;;;5039677;28;20246;-74
2023/06/15 02:58:24;;;;;;;0.10;0.10;;;;;;;;;;5053026;28;20276;-74
2023/06/15 03:00:51;;;;;;;0.03;0.03;;;;;;;;;;5039144;28;20247;-74
2023/06/15 03:03:22;;;;;;;0.10;0.10;;;;;;;;;;5053654;28;20426;-74
2023/06/15 03:05:49;;;;;;;0.10;0.10;;;;;;;;;;5038795;28;20240;-74
2023/06/15 03:08:16;;;;;;;0.10;0.10;;;;;;;;;;5053285;28;20432;-74
2023/06/15 03:10:44;;;;;;;0.10;0.10;;;;;;;;;;5037513;28;20310;-73
2023/06/15 03:13:10;;;;;;;0.00;0.00;;;;;;;;;;5054314;28;20301;-74
2023/06/15 03:15:37;;;;;;;0.10;0.10;;;;;;;;;;5037533;28;20575;-74
2023/06/15 03:18:05;;;;;;;0.10;0.10;;;;;;;;;;5055088;28;20239;-74
2023/06/15 03:20:32;;;;;;;0.08;0.08;;;;;;;;;;5036742;28;20547;-73
2023/06/15 03:22:58;;;;;;;0.10;0.10;;;;;;;;;;5055816;28;20211;-74
2023/06/15 03:25:26;;;;;;;0.10;0.10;;;;;;;;;;5035863;28;20234;-74
2023/06/15 03:27:59;;;;;;;0.10;0.10;;;;;;;;;;5056529;28;20205;-74
2023/06/15 03:30:25;;;;;;;0.10;0.10;;;;;;;;;;5035672;28;20193;-73
2023/06/15 03:32:53;;;;;;;0.10;0.10;;;;;;;;;;5056298;28;20268;-74
2023/06/15 03:35:19;;;;;;;0.10;0.10;;;;;;;;;;5035060;28;20260;-73
2023/06/15 03:37:47;;;;;;;0.05;0.05;;;;;;;;;;5057386;28;20498;-73
2023/06/15 03:40:14;;;;;;;0.10;0.10;;;;;;;;;;5033799;28;20214;-73
2023/06/15 03:42:40;;;;;;;0.10;0.10;;;;;;;;;;5057717;28;20283;-74
2023/06/15 03:45:08;;;;;;;0.10;0.10;;;;;;;;;;5043437;28;20243;-74
2023/06/15 03:47:35;;;;;;;0.10;0.10;;;;;;;;;;5031947;28;20281;-74
2023/06/15 03:50:01;;;;;;;0.05;0.05;;;;;;;;;;5043141;28;20205;-74
2023/06/15 03:52:27;;;;;;;0.08;0.08;;;;;;;;;;5048792;28;20232;-74
2023/06/15 03:54:54;;;;;;;0.00;0.00;;;;;;;;;;5043070;28;20245;-74
2023/06/15 03:57:20;;;;;;;0.10;0.10;;;;;;;;;;5048560;28;20240;-74
2023/06/15 03:59:47;;;;;;;0.10;0.10;;;;;;;;;;5043186;28;20414;-73
2023/06/15 04:02:14;;;;;;;0.00;0.00;;;;;;;;;;5048261;28;20299;-73
2023/06/15 04:04:41;;;;;;;0.10;0.10;;;;;;;;;;5042533;28;20240;-73
2023/06/15 04:07:08;;;;;;;0.10;0.10;;;;;;;;;;5048412;28;20248;-73
2023/06/15 04:09:35;;;;;;;0.10;0.10;;;;;;;;;;5043230;28;20502;-73
2023/06/15 04:12:01;;;;;;;0.05;0.05;;;;;;;;;;5047596;28;20497;-73
2023/06/15 04:14:27;;;;;;;0.00;0.00;;;;;;;;;;5043925;28;20272;-73
2023/06/15 04:16:54;;;;;;;0.10;0.10;;;;;;;;;;5046595;28;20310;-73
2023/06/15 04:19:22;;;;;;;0.10;0.10;;;;;;;;;;5044794;28;20205;-73
2023/06/15 04:21:48;;;;;;;3.08;2.38;;;;;;;;;;5049065;28;20247;-73
2023/06/15 04:24:15;;;;;;;0.10;0.10;;;;;;;;;;5049064;28;20271;-73
2023/06/15 04:26:41;;;;;;;0.10;0.10;;;;;;;;;;5048210;28;20259;-73
2023/06/15 04:29:08;;;;;;;0.10;0.10;;;;;;;;;;5049491;28;20276;-74
2023/06/15 04:31:34;;;;;;;0.10;0.10;;;;;;;;;;5047464;28;20247;-73
2023/06/15 04:34:01;;;;;;;0.10;0.10;;;;;;;;;;5050535;28;20275;-74
2023/06/15 04:36:31;;;;;;;0.00;0.00;;;;;;;;;;5046243;28;20303;-73
2023/06/15 04:38:57;;;;;;;0.03;0.03;;;;;;;;;;5050885;28;20209;-74
2023/06/15 04:41:24;;;;;;;0.10;0.10;;;;;;;;;;5045881;28;20250;-73
2023/06/15 04:43:51;;;;;;;0.08;0.08;;;;;;;;;;5051304;28;20475;-73
2023/06/15 04:46:18;;;;;;;0.00;0.00;;;;;;;;;;5045241;28;20305;-68
2023/06/15 04:48:44;;;;;;;0.10;0.10;;;;;;;;;;5052161;28;20209;-68
2023/06/15 04:51:11;;;;;;;0.10;0.10;;;;;;;;;;5044247;28;20579;-68
2023/06/15 04:53:39;;;;;;;0.10;0.10;;;;;;;;;;5053178;28;20228;-68
2023/06/15 04:56:06;;;;;;;0.10;0.10;;;;;;;;;;5043553;28;20310;-68
2023/06/15 04:58:32;;;;;;;0.10;0.10;;;;;;;;;;5053794;28;20438;-68
2023/06/15 05:00:58;;;;;;;0.10;0.10;;;;;;;;;;5042351;28;20509;-68
2023/06/15 05:03:25;;;;;;;0.10;0.10;;;;;;;;;;5054800;28;20468;-68
2023/06/15 05:05:51;;;;;;;0.10;0.10;;;;;;;;;;5041169;28;20255;-68
2023/06/15 05:08:18;;;;;;;0.10;0.10;;;;;;;;;;5055536;28;20509;-69
2023/06/15 05:10:46;;;;;;;0.10;0.10;;;;;;;;;;5040163;28;20312;-68
2023/06/15 05:13:12;;;;;;;0.10;0.10;;;;;;;;;;5056165;28;20567;-68
2023/06/15 05:15:39;;;;;;;0.10;0.10;;;;;;;;;;5039325;28;20247;-68
2023/06/15 05:18:05;;;;;;;0.00;0.00;;;;;;;;;;5056974;28;20394;-68
2023/06/15 05:20:32;;;;;;;0.10;0.10;;;;;;;;;;5038407;28;20314;-68
2023/06/15 05:22:58;;;;;;;0.05;0.05;;;;;;;;;;5057707;28;20208;-69
2023/06/15 05:25:24;;;;;;;0.10;0.10;;;;;;;;;;5037525;28;20236;-68
2023/06/15 05:27:52;;;;;;;0.13;0.13;;;;;;;;;;5058477;28;20236;-68
2023/06/15 05:30:18;;;;;;;0.10;0.10;;;;;;;;;;5036333;28;20272;-68
2023/06/15 05:32:45;;;;;;;0.10;0.10;;;;;;;;;;5058916;28;20233;-68
2023/06/15 05:35:12;;;;;;;0.10;0.10;;;;;;;;;;5035803;28;20205;-68
2023/06/15 05:37:39;;;;;;;0.30;0.30;;;;;;;;;;5059746;28;20406;-69
2023/06/15 05:40:06;;;;;;;2.75;2.65;;;;;;;;;;5044886;28;20206;-68
2023/06/15 05:42:32;;;;;;;0.10;0.10;;;;;;;;;;5050382;28;20390;-69
2023/06/15 05:45:00;;;;;;;0.10;0.10;;;;;;;;;;5045134;28;20220;-70
2023/06/15 05:47:26;;;;;;;0.00;0.00;;;;;;;;;;5050435;28;20299;-69
2023/06/15 05:49:53;;;;;;;0.10;0.10;;;;;;;;;;5044758;28;20254;-68
2023/06/15 05:52:19;;;;;;;5.47;1.00;;;;;;;;;;5050252;28;20459;-68
2023/06/15 05:54:46;;;;;;;0.03;0.03;;;;;;;;;;5044838;28;20568;-68
2023/06/15 05:57:12;;;;;;;0.10;0.10;;;;;;;;;;5050245;28;20497;-68
2023/06/15 05:59:39;;;;;;;0.10;0.10;;;;;;;;;;5044463;28;20228;-68
2023/06/15 06:02:07;;;;;;;0.10;0.10;;;;;;;;;;5049255;28;20267;-68
2023/06/15 06:04:34;;;;;;;0.10;0.10;;;;;;;;;;5045299;28;20357;-68
2023/06/15 06:07:01;;;;;;;0.00;0.00;;;;;;;;;;5049012;28;20558;-68
2023/06/15 06:09:27;;;;;;;0.10;0.10;;;;;;;;;;5045460;28;20352;-68
2023/06/15 06:11:54;;;;;;;0.10;0.10;;;;;;;;;;5047988;28;20244;-68
2023/06/15 06:14:20;;;;;;;0.10;0.10;;;;;;;;;;5046370;28;20228;-68
2023/06/15 06:16:46;;;;;;;0.10;0.10;;;;;;;;;;5046822;28;20262;-68
2023/06/15 06:19:14;;;;;;;0.00;0.00;;;;;;;;;;5047340;28;20208;-68
2023/06/15 06:21:40;;;;;;;0.10;0.10;;;;;;;;;;5046076;28;20262;-68
2023/06/15 06:24:07;;;;;;;0.00;0.00;;;;;;;;;;5047887;28;20444;-68
2023/06/15 06:26:34;;;;;;;0.10;0.10;;;;;;;;;;5045257;28;20279;-68
2023/06/15 06:29:00;;;;;;;0.00;0.00;;;;;;;;;;5048302;28;20276;-68
2023/06/15 06:31:27;;;;;;;0.10;0.10;;;;;;;;;;5044133;28;20244;-68
2023/06/15 06:33:53;;;;;;;0.10;0.10;;;;;;;;;;5049359;28;20270;-68
2023/06/15 06:36:21;;;;;;;0.10;0.10;;;;;;;;;;5043047;28;20256;-68
2023/06/15 06:38:47;;;;;;;0.10;0.10;;;;;;;;;;5050147;28;20217;-69
2023/06/15 06:41:14;;;;;;;1.55;1.55;;;;;;;;;;5042470;28;20489;-69
2023/06/15 06:43:40;;;;;;;0.10;0.10;;;;;;;;;;5049794;28;20212;-68
2023/06/15 06:46:07;;;;;;;0.10;0.10;;;;;;;;;;5041269;28;20257;-69
2023/06/15 06:48:33;;;;;;;0.10;0.10;;;;;;;;;;5051640;28;20237;-74
2023/06/15 06:50:59;;;;;;;0.10;0.10;;;;;;;;;;5040304;28;20239;-73
2023/06/15 06:53:27;;;;;;;0.10;0.10;;;;;;;;;;5052405;28;20230;-72
2023/06/15 06:55:53;;;;;;;0.22;0.22;;;;;;;;;;5039888;28;20510;-76
2023/06/15 06:58:20;;;;;;;0.10;0.10;;;;;;;;;;5053126;28;20213;-75
2023/06/15 07:00:47;;;;;;;0.10;0.10;;;;;;;;;;5038436;28;20245;-73
2023/06/15 07:03:13;;;;;;;0.00;0.00;;;;;;;;;;5054232;28;20224;-72
2023/06/15 07:05:40;;;;;;;0.10;0.10;;;;;;;;;;5038020;28;20300;-73
2023/06/15 07:08:06;;;;;;;0.10;0.10;;;;;;;;;;5054995;28;20207;-73
2023/06/15 07:10:34;;;;;;;0.10;0.10;;;;;;;;;;5037006;28;20241;-73
2023/06/15 07:13:00;;;;;;;0.10;0.10;;;;;;;;;;5055590;28;20284;-74
2023/06/15 07:15:27;;;;;;;0.10;0.10;;;;;;;;;;5035953;28;20248;-73
2023/06/15 07:17:53;;;;;;;0.10;0.10;;;;;;;;;;5056322;28;20245;-74
2023/06/15 07:20:20;;;;;;;0.08;0.08;;;;;;;;;;5035371;28;20457;-74
2023/06/15 07:22:46;;;;;;;0.03;0.03;;;;;;;;;;5057336;28;20276;-73
2023/06/15 07:25:13;;;;;;;2.28;2.17;;;;;;;;;;5033828;28;20235;-75
2023/06/15 07:27:40;;;;;;;0.03;0.03;;;;;;;;;;5058078;28;20211;-75
2023/06/15 07:30:07;;;;;;;0.10;0.10;;;;;;;;;;5043560;28;20454;-76
2023/06/15 07:32:34;;;;;;;0.05;0.05;;;;;;;;;;5058163;28;20248;-74
2023/06/15 07:35:01;;;;;;;0.05;0.05;;;;;;;;;;5043441;28;20472;-71
2023/06/15 07:37:27;;;;;;;0.10;0.10;;;;;;;;;;5048926;28;20319;-72
2023/06/15 07:39:53;;;;;;;0.00;0.00;;;;;;;;;;5043192;28;20238;-71
2023/06/15 07:42:20;;;;;;;0.10;0.10;;;;;;;;;;5048577;28;20309;-71
2023/06/15 07:44:47;;;;;;;0.03;0.03;;;;;;;;;;5043504;28;20234;-71
2023/06/15 07:47:14;;;;;;;0.10;0.10;;;;;;;;;;5048883;28;20273;-72
2023/06/15 07:49:40;;;;;;;0.10;0.10;;;;;;;;;;5042805;28;20274;-74
2023/06/15 07:52:07;;;;;;;0.03;0.03;;;;;;;;;;5048451;28;20244;-73
2023/06/15 07:54:34;;;;;;;0.05;0.05;;;;;;;;;;5044749;28;20465;-74
2023/06/15 07:57:00;;;;;;;0.03;0.03;;;;;;;;;;5051465;28;20466;-74
2023/06/15 07:59:26;;;;;;;0.10;0.10;;;;;;;;;;5047536;28;20227;-73
2023/06/15 08:01:55;;;;;;;0.10;0.10;;;;;;;;;;5050413;28;20481;-71
2023/06/15 08:04:21;;;;;;;0.10;0.10;;;;;;;;;;5048630;28;20399;-67
2023/06/15 08:06:48;;;;;;;0.05;0.05;;;;;;;;;;5049604;28;20494;-68
2023/06/15 08:09:14;;;;;;;0.10;0.10;;;;;;;;;;5049372;28;20393;-68
2023/06/15 08:11:41;;;;;;;0.20;0.20;;;;;;;;;;5048910;28;20276;-70
2023/06/15 08:14:07;;;;;;;0.10;0.10;;;;;;;;;;5050269;28;20341;-70
2023/06/15 08:16:33;;;;;;;0.10;0.10;;;;;;;;;;5047636;28;20248;-66
2023/06/15 08:19:01;;;;;;;0.10;0.10;;;;;;;;;;5051046;28;20217;-67
2023/06/15 08:21:27;;;;;;;0.10;0.10;;;;;;;;;;5046718;28;20239;-68
2023/06/15 08:23:54;;;;;;;0.10;0.10;;;;;;;;;;5051688;28;20395;-67
2023/06/15 08:26:21;;;;;;;0.20;0.20;;;;;;;;;;5045945;28;20243;-68
2023/06/15 08:28:48;;;;;;;0.20;0.20;;;;;;;;;;5052370;28;20206;-69
2023/06/15 08:31:14;;;;;;;0.08;0.08;;;;;;;;;;5044805;28;20273;-69
2023/06/15 08:33:40;;;;;;;0.03;0.03;;;;;;;;;;5053202;28;20301;-69
2023/06/15 08:36:08;;;;;;;0.00;0.00;;;;;;;;;;5044117;28;20241;-69
2023/06/15 08:38:35;;;;;;;0.05;0.05;;;;;;;;;;5054017;28;20211;-69
2023/06/15 08:41:01;;;;;;;1.15;1.02;;;;;;;;;;5043189;28;20302;-69
2023/06/15 08:43:30;;;;;;;0.10;0.10;;;;;;;;;;5054530;28;20217;-68
2023/06/15 08:45:59;;;;;;;0.00;0.00;;;;;;;;;;5042449;28;20488;-70
2023/06/15 08:48:27;;;;;;;10.32;9.88;;;;;;;;;;5054801;28;20206;-71
2023/06/15 08:50:53;;;;;;;0.10;0.10;;;;;;;;;;5041937;28;20497;-68
2023/06/15 08:53:22;;;;;;;0.47;0.47;;;;;;;;;;5055276;28;20213;-70
2023/06/15 08:55:48;;;;;;;0.00;0.00;;;;;;;;;;5041043;28;20305;-68
2023/06/15 08:58:15;;;;;;;0.10;0.10;;;;;;;;;;5055912;28;20278;-69
2023/06/15 09:00:43;;;;;;;0.10;0.10;;;;;;;;;;5040152;28;20534;-69
2023/06/15 09:03:09;;;;;;;0.10;0.10;;;;;;;;;;5056517;28;20438;-70
2023/06/15 09:05:36;;;;;;;0.00;0.00;;;;;;;;;;5038477;28;20249;-69
2023/06/15 09:08:03;;;;;;;0.10;0.10;;;;;;;;;;5057312;28;20215;-71
2023/06/15 09:10:31;;;;;;;7.15;4.95;;;;;;;;;;5038329;28;20251;-67
2023/06/15 09:12:59;;;;;;;0.10;0.10;;;;;;;;;;5058139;28;20216;-71
2023/06/15 09:15:26;;;;;;;0.10;0.10;;;;;;;;;;5037964;28;20227;-79
2023/06/15 09:17:53;;;;;;;0.10;0.10;;;;;;;;;;5058575;28;20208;-77
2023/06/15 09:20:20;;;;;;;0.00;0.00;;;;;;;;;;5036968;28;20212;-76
2023/06/15 09:22:47;;;;;;;0.00;0.00;;;;;;;;;;5059274;28;20404;-75
2023/06/15 09:25:14;;;;;;;0.08;0.08;;;;;;;;;;5035943;28;20243;-75
2023/06/15 09:27:47;;;;;;;0.00;0.00;;;;;;;;;;5059645;28;20279;-75
2023/06/15 09:30:17;;;;;;;0.08;0.08;;;;;;;;;;5045037;28;20203;-76
2023/06/15 09:32:44;;;;;;;0.00;0.00;;;;;;;;;;5033849;28;20208;-76
2023/06/15 09:35:11;;;;;;;0.10;0.10;;;;;;;;;;5035578;28;20302;-75
2023/06/15 09:37:37;;;;;;;0.00;0.00;;;;;;;;;;5059933;28;20215;-76
2023/06/15 09:40:04;;;;;;;0.00;0.00;;;;;;;;;;5044976;28;20219;-79
2023/06/15 09:42:31;;;;;;;0.00;0.00;;;;;;;;;;5050363;28;20237;-80
2023/06/15 09:45:01;;;;;;;0.00;0.00;;;;;;;;;;5044825;28;20268;-79
2023/06/15 09:47:28;;;;;;;0.00;0.00;;;;;;;;;;5050467;28;20265;-78
2023/06/15 09:49:54;;;;;;;0.00;0.00;;;;;;;;;;5045055;28;20275;-76
2023/06/15 09:52:21;;;;;;;0.00;0.00;;;;;;;;;;5050423;28;20263;-76
2023/06/15 09:54:48;;;;;;;0.10;0.10;;;;;;;;;;5044855;28;20423;-75
2023/06/15 09:57:18;;;;;;;0.00;0.00;;;;;;;;;;5050253;28;20311;-77
2023/06/15 09:59:44;;;;;;;0.00;0.00;;;;;;;;;;5044807;28;20225;-76
2023/06/15 10:02:13;;;;;;;0.00;0.00;;;;;;;;;;5050223;28;20433;-75
2023/06/15 10:04:40;;;;;;;0.00;0.00;;;;;;;;;;5044833;28;20223;-78
2023/06/15 10:07:07;;;;;;;0.00;0.00;;;;;;;;;;5049537;28;20244;-76
2023/06/15 10:09:39;;;;;;;0.05;0.05;;;;;;;;;;5044812;28;20236;-78
2023/06/15 10:12:09;;;;;;;0.00;0.00;;;;;;;;;;5049527;28;20512;-78
2023/06/15 10:14:38;;;;;;;1.35;1.35;;;;;;;;;;5044245;28;20291;-78
2023/06/15 10:17:05;;;;;;;0.03;0.03;;;;;;;;;;5049426;28;20449;-79
2023/06/15 10:19:38;;;;;;;0.00;0.00;;;;;;;;;;5044645;28;20205;-81
2023/06/15 10:22:07;;;;;;;0.00;0.00;;;;;;;;;;5049506;28;20441;-81
2023/06/15 10:24:34;;;;;;;0.10;0.10;;;;;;;;;;5044162;28;20232;-81
2023/06/15 10:27:01;;;;;;;0.00;0.00;;;;;;;;;;5048683;28;20262;-81
2023/06/15 10:29:32;;;;;;;0.25;0.25;;;;;;;;;;5044799;28;20240;-81
2023/06/15 10:32:01;;;;;;;0.10;0.10;;;;;;;;;;5048117;28;20248;-80
2023/06/15 10:34:32;;;;;;;0.00;0.00;;;;;;;;;;5044797;28;20239;-81
2023/06/15 10:37:04;;;;;;;0.00;0.00;;;;;;;;;;5048191;28;20316;-81
2023/06/15 10:39:35;;;;;;;0.00;0.00;;;;;;;;;;5044612;28;20267;-80
2023/06/15 10:42:06;;;;;;;0.03;0.03;;;;;;;;;;5048353;28;20235;-80
2023/06/15 10:44:33;;;;;;;0.00;0.00;;;;;;;;;;5044210;28;20409;-83
2023/06/15 10:47:06;;;;;;;0.00;0.00;;;;;;;;;;5048362;28;20239;-81
2023/06/15 10:49:32;;;;;;;0.00;0.00;;;;;;;;;;5043930;28;20224;-78
2023/06/15 10:51:58;;;;;;;0.10;0.10;;;;;;;;;;5047930;28;20488;-80
2023/06/15 10:54:27;;;;;;;0.00;0.00;;;;;;;;;;5044851;28;20256;-80
2023/06/15 10:56:55;;;;;;;0.03;0.03;;;;;;;;;;5047227;28;20251;-76
2023/06/15 10:59:38;;;;;;;0.52;0.47;;;;;;;;;;5045293;28;20221;-80
2023/06/15 11:02:20;;;;;;;0.10;0.10;;;;;;;;;;5048532;28;20244;-77
2023/06/15 11:04:51;;;;;;;0.00;0.00;;;;;;;;;;5043477;28;20260;-77
2023/06/15 11:07:26;;;;;;;0.00;0.00;;;;;;;;;;5049169;28;20315;-78
2023/06/15 11:09:56;;;;;;;0.00;0.00;;;;;;;;;;5043539;28;20198;-77
2023/06/15 11:12:36;;;;;;;0.00;0.00;;;;;;;;;;5049101;28;20256;-77
2023/06/15 11:15:03;;;;;;;0.00;0.00;;;;;;;;;;5043539;28;20234;-77
2023/06/15 11:17:29;;;;;;;0.00;0.00;;;;;;;;;;5049076;28;20247;-77
2023/06/15 11:19:57;;;;;;;0.10;0.10;;;;;;;;;;5043715;28;20230;-78
2023/06/15 11:22:25;;;;;;;2.25;2.17;;;;;;;;;;5048945;28;20239;-77
2023/06/15 11:24:53;;;;;;;0.10;0.10;;;;;;;;;;5043601;28;20498;-77
2023/06/15 11:27:22;;;;;;;0.10;0.10;;;;;;;;;;5049008;28;20267;-77
2023/06/15 11:29:55;;;;;;;0.28;0.28;;;;;;;;;;5045338;28;20216;-78
2023/06/15 11:32:25;;;;;;;0.00;0.00;;;;;;;;;;5053000;28;20286;-80
2023/06/15 11:34:55;;;;;;;0.00;0.00;;;;;;;;;;5047271;28;20240;-80
2023/06/15 11:37:22;;;;;;;0.00;0.00;;;;;;;;;;5052994;28;20239;-80
2023/06/15 11:39:49;;;;;;;0.00;0.00;;;;;;;;;;5047449;28;20204;-78
2023/06/15 11:42:16;;;;;;;0.00;0.00;;;;;;;;;;5052655;28;20247;-79
2023/06/15 11:44:44;;;;;;;0.10;0.10;;;;;;;;;;5047094;28;20193;-78
2023/06/15 11:47:11;;;;;;;0.00;0.00;;;;;;;;;;5052796;28;20243;-77
2023/06/15 11:49:37;;;;;;;0.00;0.00;;;;;;;;;;5047333;28;20295;-79
2023/06/15 11:52:04;;;;;;;0.57;0.57;;;;;;;;;;5052184;28;20490;-76
2023/06/15 11:54:31;;;;;;;0.00;0.00;;;;;;;;;;5047462;28;20205;-76
2023/06/15 11:56:58;;;;;;;0.00;0.00;;;;;;;;;;5051096;28;20329;-75
2023/06/15 11:59:25;;;;;;;0.10;0.10;;;;;;;;;;5047951;28;20232;-76
2023/06/15 12:01:57;;;;;;;0.00;0.00;;;;;;;;;;5049867;28;20390;-76
2023/06/15 12:04:27;;;;;;;2.72;1.17;;;;;;;;;;5048458;28;20224;-75
2023/06/15 12:06:53;;;;;;;0.03;0.03;;;;;;;;;;5050514;28;20239;-75
2023/06/15 12:09:20;;;;;;;0.00;0.00;;;;;;;;;;5048320;28;20232;-76
2023/06/15 12:11:47;;;;;;;0.10;0.10;;;;;;;;;;5049465;28;20247;-76
2023/06/15 12:14:16;;;;;;;0.00;0.00;;;;;;;;;;5049466;28;20205;-76
2023/06/15 12:16:48;;;;;;;0.05;0.05;;;;;;;;;;5048890;28;20651;-75
2023/06/15 12:19:16;;;;;;;0.00;0.00;;;;;;;;;;5049245;28;20444;-76
2023/06/15 12:21:44;;;;;;;0.00;0.00;;;;;;;;;;5048677;28;20243;-75
2023/06/15 12:24:14;;;;;;;0.00;0.00;;;;;;;;;;5049682;28;20227;-76
2023/06/15 12:26:41;;;;;;;0.00;0.00;;;;;;;;;;5048398;28;20482;-76
2023/06/15 12:29:14;;;;;;;0.00;0.00;;;;;;;;;;5049974;28;20251;-75
2023/06/15 12:31:41;;;;;;;0.00;0.00;;;;;;;;;;5048267;28;20236;-75
2023/06/15 12:34:08;;;;;;;0.00;0.00;;;;;;;;;;5049612;28;20211;-75
2023/06/15 12:36:37;;;;;;;0.00;0.00;;;;;;;;;;5047448;28;20295;-76
2023/06/15 12:39:08;;;;;;;0.00;0.00;;;;;;;;;;5050414;28;20212;-75
2023/06/15 12:41:37;;;;;;;0.00;0.00;;;;;;;;;;5045978;28;20303;-75
2023/06/15 12:44:04;;;;;;;0.20;0.20;;;;;;;;;;5049811;28;20279;-75
2023/06/15 12:46:30;;;;;;;0.00;0.00;;;;;;;;;;5046726;28;20240;-76
2023/06/15 12:48:57;;;;;;;0.00;0.00;;;;;;;;;;5050813;28;20205;-75
2023/06/15 12:51:23;;;;;;;0.00;0.00;;;;;;;;;;5045816;28;20240;-76
2023/06/15 12:53:51;;;;;;;0.00;0.00;;;;;;;;;;5051406;28;20205;-75
2023/06/15 12:56:18;;;;;;;0.00;0.00;;;;;;;;;;5044745;28;20290;-75
2023/06/15 12:58:45;;;;;;;0.00;0.00;;;;;;;;;;5052198;28;20217;-75
2023/06/15 13:01:11;;;;;;;0.00;0.00;;;;;;;;;;5043960;28;20259;-76
2023/06/15 13:03:37;;;;;;;0.00;0.00;;;;;;;;;;5053089;28;20205;-75
2023/06/15 13:06:04;;;;;;;0.00;0.00;;;;;;;;;;5043122;28;20595;-75
2023/06/15 13:08:30;;;;;;;0.00;0.00;;;;;;;;;;5053624;28;20211;-75
2023/06/15 13:10:58;;;;;;;0.00;0.00;;;;;;;;;;5042116;28;20243;-75
2023/06/15 13:13:25;;;;;;;0.00;0.00;;;;;;;;;;5054631;28;20208;-76
2023/06/15 13:15:52;;;;;;;0.00;0.00;;;;;;;;;;5041002;28;20303;-75
2023/06/15 13:18:19;;;;;;;0.00;0.00;;;;;;;;;;5055087;28;20236;-75
2023/06/15 13:20:45;;;;;;;0.00;0.00;;;;;;;;;;5040361;28;20294;-75
2023/06/15 13:23:13;;;;;;;0.00;0.00;;;;;;;;;;5055984;28;20239;-75
2023/06/15 13:25:42;;;;;;;0.00;0.00;;;;;;;;;;5039472;28;20490;-75
2023/06/15 13:28:10;;;;;;;0.03;0.03;;;;;;;;;;5056420;28;20424;-75
2023/06/15 13:30:36;;;;;;;0.00;0.00;;;;;;;;;;5039083;28;20656;-75
2023/06/15 13:33:02;;;;;;;0.00;0.00;;;;;;;;;;5057098;28;20445;-75
2023/06/15 13:35:29;;;;;;;1.00;1.00;;;;;;;;;;5038032;28;20382;-75
2023/06/15 13:37:58;;;;;;;0.00;0.00;;;;;;;;;;5057978;28;20243;-75
2023/06/15 13:40:24;;;;;;;0.00;0.00;;;;;;;;;;5037540;28;20544;-76
2023/06/15 13:42:51;;;;;;;0.00;0.00;;;;;;;;;;5058099;28;20412;-75
2023/06/15 13:45:21;;;;;;;0.10;0.10;;;;;;;;;;5036516;28;20547;-75
2023/06/15 13:47:48;;;;;;;0.00;0.00;;;;;;;;;;5058660;28;20209;-75
2023/06/15 13:50:15;;;;;;;0.00;0.00;;;;;;;;;;5035720;28;20237;-76
2023/06/15 13:52:46;;;;;;;0.00;0.00;;;;;;;;;;5059030;28;20446;-75
2023/06/15 13:55:12;;;;;;;0.00;0.00;;;;;;;;;;5035618;28;20193;-75
2023/06/15 13:57:39;;;;;;;0.00;0.00;;;;;;;;;;5059699;28;20276;-75
2023/06/15 14:00:07;;;;;;;0.00;0.00;;;;;;;;;;5044615;28;20225;-75
2023/06/15 14:02:36;;;;;;;0.10;0.10;;;;;;;;;;5033377;28;20216;-75
2023/06/15 14:05:03;;;;;;;0.10;0.10;;;;;;;;;;5044492;28;20247;-75
2023/06/15 14:07:29;;;;;;;0.00;0.00;;;;;;;;;;5050209;28;20240;-75
2023/06/15 14:09:55;;;;;;;0.00;0.00;;;;;;;;;;5044708;28;20504;-75
2023/06/15 14:12:22;;;;;;;0.00;0.00;;;;;;;;;;5050040;28;20316;-75
2023/06/15 14:14:48;;;;;;;0.45;0.45;;;;;;;;;;5044639;28;20204;-75
2023/06/15 14:17:15;;;;;;;0.00;0.00;;;;;;;;;;5049907;28;20318;-74
2023/06/15 14:19:44;;;;;;;0.15;0.15;;;;;;;;;;5044494;28;20212;-75
2023/06/15 14:22:11;;;;;;;0.00;0.00;;;;;;;;;;5049755;28;20250;-75
2023/06/15 14:24:40;;;;;;;0.00;0.00;;;;;;;;;;5044154;28;20212;-76
2023/06/15 14:27:06;;;;;;;0.00;0.00;;;;;;;;;;5049265;28;20611;-75
2023/06/15 14:29:33;;;;;;;0.00;0.00;;;;;;;;;;5044632;28;20239;-75
2023/06/15 14:31:59;;;;;;;0.00;0.00;;;;;;;;;;5048351;28;20247;-75
2023/06/15 14:34:25;;;;;;;0.00;0.00;;;;;;;;;;5045244;28;20243;-75
2023/06/15 14:36:53;;;;;;;0.00;0.00;;;;;;;;;;5047252;28;20263;-75
2023/06/15 14:39:20;;;;;;;0.00;0.00;;;;;;;;;;5045641;28;20205;-75
2023/06/15 14:41:46;;;;;;;0.00;0.00;;;;;;;;;;5046503;28;20259;-75
2023/06/15 14:44:13;;;;;;;0.00;0.00;;;;;;;;;;5046705;28;20472;-75